Ponciano Arriaga International Airport
MMSP : now visible

Airfield :











YOU CAN JOIN US ON...

 
LOGIN :

Register | Disclaimer

   EN    FR    IT 

 









Legend :    VFR   Marginal VFR   IFR   Intensive IFR   Very Intensive IFR
Visi :
Ceiling :
>= 8 km
>= 3000ft
5 to 8 km
1000 to 3000 ft
1500m to 5 km
500 to 1000 ft
800 to 1500m
200 to 500 ft
< 800m
< 200 ft
Symbols :   Thunderstorms  Fog  Heavy snow  Heavy precipitations  Wind > 20 kt







- Airport Elevation : 6035 ft
- IATA code : SLP


MMSP - Ponciano Arriaga International

CURRENT METAR :
  • 210956Z RTD 00000KT 8SM SKC 13/13 A3025

EXPIRED METARs :
  • 210847Z 00000KT 8SM SKC 14/13 A3027 RMK SLP121 57002 919 SC
  • 210745Z 00000KT 8SM SKC 15/14 A3028 RMK SC

TAF TAF MMSP
Valid from the 21 at 06:00 until the 22 at 12:00 UTC


210451Z 2106/2212 13005KT P6SM SCT020 TX25/2121Z TN14/2112Z
TEMPO 2110/2114 BKN020
FM211600 13010KT P6SM SCT020
TEMPO 2121/2201 BKN020
FM220200 13005KT P6SM SCT020
No reported NOTAMs for that airfield.



MET'MAP, your aeronautical weather chart ! - Copyright ORBIFLY December 2007 - Disclaimer

ORBIFLY MET'MAP TEAM :

Programming & Development : Alexandra Zaïnal
Concept & Development : Baudouin d'Aumeries
Co-Development & Prog : Marc-Olivier Méhu
Technical & hardware support : Manuel Goepfert

Contact : metmap@orbifly.com




SOURCES & CREDITS :

   NOAA       Earth
Advisory